Time;durP1;ratioP1;P1;durP2;ratioP2;P2;SDS_P1;SDS_P2;PMS_P1;PMS_P2;Temp;Humidity;BMP_temperature;BMP_pressure;BME280_temperature;BME280_humidity;BME280_pressure;Samples;Min_cycle;Max_cycle;Signal;HPM_P1;HPM_P2
2022/09/20 00:01:22;;;;;;;4.47;2.10;;;12.60;99.90;;;;;;4951805;28;20187;-69
2022/09/20 00:03:53;;;;;;;3.30;1.80;;;12.60;99.90;;;;;;4950357;28;20311;-68
2022/09/20 00:06:21;;;;;;;4.90;1.77;;;12.40;99.90;;;;;;4951623;29;20173;-68
2022/09/20 00:08:48;;;;;;;5.27;2.00;;;12.40;99.90;;;;;;4951389;28;20184;-68
2022/09/20 00:11:16;;;;;;;5.60;2.20;;;12.40;99.90;;;;;;4951468;28;20200;-68
2022/09/20 00:13:44;;;;;;;5.20;2.60;;;12.40;99.90;;;;;;4951400;28;20323;-68
2022/09/20 00:16:13;;;;;;;3.30;2.40;;;12.40;99.90;;;;;;4912136;28;1112747;-68
2022/09/20 00:18:39;;;;;;;5.83;2.53;;;12.40;99.90;;;;;;4952044;28;20253;-68
2022/09/20 00:21:05;;;;;;;5.33;2.60;;;12.40;99.90;;;;;;4952414;28;20640;-68
2022/09/20 00:23:31;;;;;;;3.10;2.60;;;12.40;99.90;;;;;;4951997;28;20173;-68
2022/09/20 00:26:01;;;;;;;5.17;2.33;;;12.30;99.90;;;;;;4951816;28;20183;-68
2022/09/20 00:28:28;;;;;;;6.30;2.70;;;12.30;99.90;;;;;;4952047;28;20267;-68
2022/09/20 00:30:54;;;;;;;7.43;2.60;;;12.30;99.90;;;;;;4951756;28;20198;-68
2022/09/20 00:33:22;;;;;;;5.53;2.77;;;12.20;99.90;;;;;;4952024;29;20183;-69
2022/09/20 00:35:48;;;;;;;4.60;2.37;;;12.20;99.90;;;;;;4952078;28;20267;-68
2022/09/20 00:38:14;;;;;;;4.97;2.87;;;12.20;99.90;;;;;;4951880;28;20200;-68
2022/09/20 00:40:41;;;;;;;5.20;2.60;;;12.20;99.90;;;;;;4950290;28;20532;-68
2022/09/20 00:43:09;;;;;;;6.27;2.87;;;12.10;99.90;;;;;;4951993;28;20187;-67
2022/09/20 00:45:35;;;;;;;4.50;2.73;;;12.00;99.90;;;;;;4951811;28;20252;-68
2022/09/20 00:48:12;;;;;;;5.23;3.47;;;12.00;99.90;;;;;;4951789;28;20256;-68
2022/09/20 00:50:50;;;;;;;5.87;2.63;;;12.00;99.90;;;;;;4951865;28;20180;-69
2022/09/20 00:53:22;;;;;;;11.80;3.43;;;12.00;99.90;;;;;;4951789;29;20173;-68
2022/09/20 00:55:56;;;;;;;7.43;2.70;;;12.00;99.90;;;;;;4951513;28;20263;-67
2022/09/20 00:58:25;;;;;;;8.73;3.13;;;12.00;99.90;;;;;;4951636;28;20188;-69
2022/09/20 01:00:53;;;;;;;5.33;3.10;;;12.00;99.90;;;;;;4951715;28;20181;-68
2022/09/20 01:03:21;;;;;;;4.50;2.93;;;12.00;99.90;;;;;;4951583;29;20198;-68
2022/09/20 01:05:49;;;;;;;6.07;2.93;;;12.10;99.90;;;;;;4951797;28;20342;-69
2022/09/20 01:08:16;;;;;;;3.23;2.53;;;12.10;99.90;;;;;;4951257;29;20191;-68
2022/09/20 01:10:41;;;;;;;6.60;2.77;;;12.10;99.90;;;;;;4951451;28;20234;-68
2022/09/20 01:13:08;;;;;;;4.63;3.00;;;12.00;99.90;;;;;;4951576;29;20745;-68
2022/09/20 01:15:36;;;;;;;3.97;2.70;;;12.10;99.90;;;;;;4953798;28;20216;-68
2022/09/20 01:18:04;;;;;;;7.07;3.07;;;12.10;99.90;;;;;;4954547;28;20223;-68
2022/09/20 01:20:39;;;;;;;4.97;2.47;;;12.20;99.90;;;;;;4954555;28;20172;-68
2022/09/20 01:23:13;;;;;;;4.97;2.90;;;12.20;99.90;;;;;;4954344;28;20172;-69
2022/09/20 01:25:50;;;;;;;7.60;3.07;;;12.10;99.90;;;;;;4954702;28;20175;-69
2022/09/20 01:28:16;;;;;;;6.70;3.07;;;12.20;99.90;;;;;;4954597;28;20648;-69
2022/09/20 01:31:07;;;;;;;7.63;3.10;;;12.10;99.90;;;;;;4954571;28;20287;-68
2022/09/20 01:33:42;;;;;;;4.37;2.80;;;12.10;99.90;;;;;;4954406;29;20204;-68
2022/09/20 01:36:11;;;;;;;3.90;2.67;;;12.00;99.90;;;;;;4954544;28;20290;-69
2022/09/20 01:38:58;;;;;;;8.17;2.80;;;12.00;99.90;;;;;;4954112;29;20173;-69
2022/09/20 01:41:36;;;;;;;5.77;3.33;;;12.00;99.90;;;;;;4954378;28;20224;-67
2022/09/20 01:44:34;;;;;;;9.63;3.20;;;11.90;99.90;;;;;;4954421;28;20184;-68
2022/09/20 01:47:20;;;;;;;6.80;3.50;;;11.90;99.90;;;;;;4954229;28;20660;-68
2022/09/20 01:50:02;;;;;;;6.57;3.17;;;11.90;99.90;;;;;;4954168;28;20196;-68
2022/09/20 01:52:40;;;;;;;4.43;2.90;;;11.90;99.90;;;;;;4953916;28;20165;-68
2022/09/20 01:55:24;;;;;;;5.37;2.77;;;11.80;99.90;;;;;;4954224;29;20212;-68
2022/09/20 01:58:11;;;;;;;8.03;3.40;;;11.90;99.90;;;;;;4954078;28;20193;-68
2022/09/20 02:00:56;;;;;;;5.57;3.20;;;11.90;99.90;;;;;;4953967;28;20177;-68
2022/09/20 02:03:49;;;;;;;4.60;3.33;;;11.90;99.90;;;;;;4954059;28;20193;-69
2022/09/20 02:06:33;;;;;;;6.13;3.30;;;11.90;99.90;;;;;;4953518;28;20231;-68
2022/09/20 02:09:35;;;;;;;9.70;3.70;;;11.90;99.90;;;;;;4953791;28;20276;-69
2022/09/20 02:12:15;;;;;;;4.40;3.47;;;11.90;99.90;;;;;;4954029;28;20183;-69
2022/09/20 02:14:41;;;;;;;5.30;3.40;;;11.90;99.90;;;;;;4953778;28;20200;-68
2022/09/20 02:17:16;;;;;;;4.87;3.67;;;11.90;99.90;;;;;;4953540;28;20229;-68
2022/09/20 02:20:04;;;;;;;5.03;3.40;;;12.00;99.90;;;;;;4953913;28;20181;-68
2022/09/20 02:22:48;;;;;;;8.10;3.80;;;12.00;99.90;;;;;;4953463;29;20176;-69
2022/09/20 02:25:23;;;;;;;3.73;3.33;;;12.00;99.90;;;;;;4953531;28;20748;-68
2022/09/20 02:28:16;;;;;;;6.43;3.23;;;12.10;99.90;;;;;;4952931;28;20214;-68
2022/09/20 02:30:50;;;;;;;8.97;3.80;;;12.10;99.90;;;;;;4953679;28;20690;-68
2022/09/20 02:34:01;;;;;;;3.87;3.10;;;12.10;99.90;;;;;;4953652;28;20202;-69
2022/09/20 02:36:54;;;;;;;6.47;3.50;;;12.10;99.90;;;;;;4967998;28;20604;-68
2022/09/20 02:39:25;;;;;;;5.57;3.40;;;12.00;99.90;;;;;;4953516;28;20173;-68
2022/09/20 02:42:09;;;;;;;7.80;3.57;;;12.00;99.90;;;;;;4953229;28;20181;-68
2022/09/20 02:44:46;;;;;;;7.97;3.70;;;12.00;99.90;;;;;;4953492;28;20180;-68
2022/09/20 02:47:34;;;;;;;4.57;3.80;;;12.10;99.90;;;;;;4953752;29;20173;-69
2022/09/20 02:50:18;;;;;;;7.67;4.03;;;12.20;99.90;;;;;;4953082;28;20169;-68
2022/09/20 02:52:59;;;;;;;13.03;3.87;;;12.30;99.90;;;;;;4953302;28;20702;-68
2022/09/20 02:55:50;;;;;;;5.90;3.83;;;12.30;99.90;;;;;;4953450;28;20222;-68
2022/09/20 02:58:29;;;;;;;8.97;4.00;;;12.40;99.90;;;;;;4953135;28;20271;-68
2022/09/20 03:01:01;;;;;;;6.33;4.07;;;12.40;99.90;;;;;;4953035;28;20259;-68
2022/09/20 03:03:54;;;;;;;9.47;3.93;;;12.40;99.90;;;;;;4953040;28;20173;-69
2022/09/20 03:06:37;;;;;;;8.27;3.87;;;12.50;99.90;;;;;;4952878;28;20220;-68
2022/09/20 03:09:24;;;;;;;8.67;3.90;;;12.50;99.90;;;;;;4953114;28;20173;-69
2022/09/20 03:12:17;;;;;;;5.53;3.83;;;12.40;99.90;;;;;;4953081;28;20172;-69
2022/09/20 03:14:53;;;;;;;5.93;3.93;;;12.40;99.90;;;;;;4952687;28;20204;-68
2022/09/20 03:17:35;;;;;;;7.80;3.87;;;12.50;99.90;;;;;;4952702;28;20261;-69
2022/09/20 03:20:22;;;;;;;4.57;4.00;;;12.50;99.90;;;;;;4951915;28;20227;-69
2022/09/20 03:23:08;;;;;;;4.83;3.93;;;12.40;99.90;;;;;;4952762;28;20216;-69
2022/09/20 03:25:57;;;;;;;4.90;3.67;;;12.40;99.90;;;;;;4952895;29;20255;-69
2022/09/20 03:28:38;;;;;;;5.67;3.60;;;12.30;99.90;;;;;;4952944;29;20222;-70
2022/09/20 03:31:25;;;;;;;5.53;4.10;;;12.20;99.90;;;;;;4952909;28;20618;-68
2022/09/20 03:34:13;;;;;;;6.27;4.03;;;12.20;99.90;;;;;;4952209;29;20200;-68
2022/09/20 03:37:03;;;;;;;6.50;3.73;;;12.10;99.90;;;;;;4983797;28;20538;-68
2022/09/20 03:40:00;;;;;;;8.17;4.33;;;12.10;99.90;;;;;;4952399;28;20636;-69
2022/09/20 03:42:28;;;;;;;4.63;4.10;;;12.10;99.90;;;;;;4952328;28;20173;-68
2022/09/20 03:45:14;;;;;;;5.07;4.13;;;12.10;99.90;;;;;;4952244;28;20185;-68
2022/09/20 03:48:05;;;;;;;6.60;4.30;;;12.10;99.90;;;;;;4952546;28;20180;-68
2022/09/20 03:50:51;;;;;;;4.20;3.80;;;12.20;99.90;;;;;;4952384;28;20196;-69
2022/09/20 03:53:38;;;;;;;8.83;4.20;;;12.20;99.90;;;;;;4952000;28;20188;-68
2022/09/20 03:56:17;;;;;;;6.30;3.97;;;12.20;99.90;;;;;;4952023;28;20202;-69
2022/09/20 03:58:52;;;;;;;5.20;4.13;;;12.20;99.90;;;;;;4952147;28;20231;-68
2022/09/20 04:01:52;;;;;;;9.50;4.00;;;12.20;99.90;;;;;;4951944;28;20200;-67
2022/09/20 04:04:23;;;;;;;5.87;3.80;;;12.20;99.90;;;;;;4951782;28;20204;-69
2022/09/20 04:07:17;;;;;;;6.00;3.60;;;12.20;99.90;;;;;;4952114;29;20176;-69
2022/09/20 04:09:54;;;;;;;9.77;4.03;;;12.20;99.90;;;;;;4951486;28;20179;-68
2022/09/20 04:12:39;;;;;;;10.90;4.30;;;12.20;99.90;;;;;;4951523;28;20723;-68
2022/09/20 04:15:11;;;;;;;4.93;3.80;;;12.20;99.90;;;;;;4951839;28;20216;-68
2022/09/20 04:18:14;;;;;;;5.13;3.90;;;12.10;99.90;;;;;;4951167;28;20303;-68
2022/09/20 04:21:07;;;;;;;5.87;3.97;;;12.10;99.90;;;;;;4981826;28;20652;-69
2022/09/20 04:24:02;;;;;;;9.67;3.87;;;12.20;99.90;;;;;;4978668;28;20230;-69
2022/09/20 04:26:30;;;;;;;6.87;4.03;;;12.10;99.90;;;;;;4951319;28;20172;-69
2022/09/20 04:29:22;;;;;;;8.00;4.40;;;12.00;99.90;;;;;;4951408;28;20684;-69
2022/09/20 04:32:03;;;;;;;8.63;4.47;;;12.00;99.90;;;;;;4951256;28;20179;-68
2022/09/20 04:37:30;;;;;;;9.50;5.00;;;11.80;99.90;;;;;;4952008;29;20233;-68
2022/09/20 04:40:08;;;;;;;10.30;4.83;;;11.70;99.90;;;;;;4951088;28;20177;-68
2022/09/20 04:43:13;;;;;;;7.63;4.83;;;11.60;99.90;;;;;;4951255;28;20165;-68
2022/09/20 04:46:06;;;;;;;7.77;4.40;;;11.50;99.90;;;;;;4951371;28;20644;-68
2022/09/20 04:49:17;;;;;;;7.27;4.63;;;11.50;99.90;;;;;;4951165;28;20185;-69
2022/09/20 04:52:03;;;;;;;8.40;5.20;;;11.50;99.90;;;;;;4953845;28;20543;-69
2022/09/20 04:54:46;;;;;;;7.50;4.90;;;11.40;99.90;;;;;;4954742;28;20257;-68
2022/09/20 04:57:52;;;;;;;9.90;4.93;;;11.40;99.90;;;;;;4954389;28;20197;-68
2022/09/20 05:00:21;;;;;;;8.80;5.00;;;11.30;99.90;;;;;;4954134;28;20181;-68
2022/09/20 05:02:58;;;;;;;11.73;5.30;;;11.30;99.90;;;;;;4954068;28;20173;-69
2022/09/20 05:05:44;;;;;;;9.70;5.73;;;11.20;99.90;;;;;;4953561;28;20183;-69
2022/09/20 05:08:21;;;;;;;7.83;5.40;;;11.20;99.90;;;;;;4953943;29;20495;-68
2022/09/20 05:11:11;;;;;;;8.57;4.63;;;11.20;99.90;;;;;;4953807;28;20222;-69
2022/09/20 05:14:02;;;;;;;12.73;5.43;;;11.20;99.90;;;;;;4953632;28;20176;-69
2022/09/20 05:17:15;;;;;;;10.33;5.10;;;11.30;99.90;;;;;;4953055;28;20315;-69
2022/09/20 05:19:53;;;;;;;9.93;5.60;;;11.30;99.90;;;;;;4953317;28;20655;-69
2022/09/20 05:22:34;;;;;;;8.87;5.27;;;11.30;99.90;;;;;;4953467;28;20268;-69
2022/09/20 05:25:15;;;;;;;13.30;6.00;;;11.30;99.90;;;;;;4953111;28;20218;-68
2022/09/20 05:28:21;;;;;;;13.90;5.60;;;11.40;99.90;;;;;;4953017;29;20172;-69
2022/09/20 05:31:12;;;;;;;10.07;5.23;;;11.40;99.90;;;;;;5012293;28;20178;-68
2022/09/20 05:34:01;;;;;;;9.60;5.63;;;11.40;99.90;;;;;;4996539;28;20569;-68
2022/09/20 05:36:49;;;;;;;7.33;5.23;;;11.30;99.90;;;;;;5012853;28;20269;-69
2022/09/20 05:39:30;;;;;;;11.83;5.53;;;11.40;99.90;;;;;;5012677;28;20179;-68
2022/09/20 05:42:03;;;;;;;11.37;5.33;;;11.50;99.90;;;;;;5012350;28;20175;-69
2022/09/20 05:44:53;;;;;;;12.73;5.57;;;11.50;99.90;;;;;;5011852;28;20183;-69
2022/09/20 05:47:54;;;;;;;8.63;5.20;;;11.50;99.90;;;;;;5011454;28;20303;-68
2022/09/20 05:50:59;;;;;;;7.63;5.27;;;11.50;99.90;;;;;;5011583;28;20634;-69
2022/09/20 05:53:33;;;;;;;8.07;5.87;;;11.60;99.90;;;;;;4979735;28;20182;-68
2022/09/20 05:56:11;;;;;;;5.97;5.37;;;11.90;99.90;;;;;;5011533;28;20648;-69
2022/09/20 05:58:46;;;;;;;12.70;5.10;;;12.10;99.90;;;;;;5012171;28;20225;-68
2022/09/20 06:01:36;;;;;;;11.97;5.10;;;12.50;99.90;;;;;;5011146;28;20172;-69
2022/09/20 06:04:16;;;;;;;9.10;5.30;;;13.20;99.90;;;;;;5011762;28;20163;-69
2022/09/20 06:07:16;;;;;;;13.40;5.70;;;13.90;74.40;;;;;;4974617;28;20196;-69
2022/09/20 06:10:02;;;;;;;11.87;5.30;;;14.00;40.30;;;;;;4952423;28;20268;-71
2022/09/20 06:12:34;;;;;;;11.37;5.87;;;13.80;38.60;;;;;;4952510;28;20191;-68
2022/09/20 06:15:20;;;;;;;12.13;5.27;;;14.10;43.90;;;;;;4951700;28;20212;-69
2022/09/20 06:18:17;;;;;;;7.03;5.03;;;14.40;23.00;;;;;;4952624;28;20278;-68
2022/09/20 06:20:58;;;;;;;12.47;5.63;;;14.50;15.50;;;;;;4951915;28;20208;-70
2022/09/20 06:23:24;;;;;;;13.13;5.93;;;14.30;12.60;;;;;;4952791;28;20234;-69
2022/09/20 06:26:06;;;;;;;14.03;6.40;;;14.30;9.40;;;;;;4951599;28;20188;-70
2022/09/20 06:28:40;;;;;;;13.47;5.27;;;14.20;10.10;;;;;;4951640;29;20180;-69
2022/09/20 06:31:07;;;;;;;10.30;5.90;;;14.20;10.90;;;;;;4952306;28;20263;-69
2022/09/20 06:33:43;;;;;;;11.90;5.10;;;14.40;2.20;;;;;;4951916;28;20275;-70
2022/09/20 06:42:10;;;;;;;12.13;5.13;;;15.00;1.00;;;;;;4951392;29;20230;-70
2022/09/20 06:44:40;;;;;;;20.53;5.57;;;16.00;1.00;;;;;;4952351;28;20621;-71
2022/09/20 06:47:08;;;;;;;9.33;4.87;;;17.20;1.00;;;;;;4951838;28;20173;-70
2022/09/20 06:49:34;;;;;;;8.52;5.45;;;18.70;1.00;;;;;;4951910;28;20185;-70
2022/09/20 06:52:04;;;;;;;7.40;4.78;;;20.10;96.70;;;;;;4950331;28;20177;-70
2022/09/20 06:54:30;;;;;;;10.88;4.70;;;21.20;1.00;;;;;;4951491;28;20204;-71
2022/09/20 06:56:56;;;;;;;10.38;5.00;;;22.20;6.30;;;;;;4977578;28;20632;-72
2022/09/20 06:59:22;;;;;;;10.45;5.15;;;21.70;1.00;;;;;;5033868;28;20222;-72
2022/09/20 07:01:47;;;;;;;8.73;5.47;;;21.50;1.00;;;;;;4990587;28;20172;-72
2022/09/20 07:04:13;;;;;;;12.43;5.38;;;21.60;1.00;;;;;;5033149;28;20186;-72
2022/09/20 07:06:39;;;;;;;10.57;5.38;;;22.30;1.00;;;;;;5014630;28;20203;-71
2022/09/20 07:09:05;;;;;;;10.60;4.97;;;23.70;99.90;;;;;;5013808;28;20168;-72
2022/09/20 07:11:33;;;;;;;14.15;5.32;;;24.50;1.00;;;;;;5045516;28;20261;-72
2022/09/20 07:13:58;;;;;;;6.25;4.60;;;24.90;1.00;;;;;;5008572;28;20730;-72
2022/09/20 07:16:25;;;;;;;9.02;4.60;;;25.70;99.90;;;;;;5034259;28;20294;-72
2022/09/20 07:18:51;;;;;;;9.95;4.97;;;26.60;99.90;;;;;;5045966;28;20599;-71
2022/09/20 07:21:18;;;;;;;12.27;5.00;;;26.10;99.90;;;;;;5046661;28;20628;-71
2022/09/20 07:23:44;;;;;;;11.00;5.10;;;26.50;99.90;;;;;;5042262;28;20184;-70
2022/09/20 07:26:29;;;;;;;10.13;6.07;;;27.10;99.90;;;;;;5032161;28;20172;-71
2022/09/20 07:28:56;;;;;;;10.40;5.93;;;27.20;99.90;;;;;;4991237;28;20164;-71
2022/09/20 07:31:24;;;;;;;7.30;4.70;;;27.60;99.90;;;;;;5047498;28;20176;-70
2022/09/20 07:33:50;;;;;;;9.38;5.40;;;27.90;99.90;;;;;;5038416;28;20200;-69
2022/09/20 07:36:16;;;;;;;11.30;5.18;;;28.00;99.90;;;;;;5033012;28;20232;-70
2022/09/20 07:38:47;;;;;;;9.50;4.72;;;28.00;99.90;;;;;;5045717;28;20206;-71
2022/09/20 07:41:12;;;;;;;10.70;4.90;;;27.80;99.90;;;;;;5040895;28;20270;-70
2022/09/20 07:43:38;;;;;;;10.38;4.95;;;28.00;99.90;;;;;;5033456;28;20252;-72
2022/09/20 07:46:05;;;;;;;11.70;5.03;;;29.40;99.90;;;;;;5013062;28;20180;-71
2022/09/20 07:48:32;;;;;;;12.48;5.15;;;29.00;99.90;;;;;;5057694;28;20188;-72
2022/09/20 07:51:02;;;;;;;12.05;4.97;;;28.70;99.90;;;;;;4989376;28;20270;-72
2022/09/20 07:53:28;;;;;;;11.65;4.85;;;29.40;99.90;;;;;;5028441;28;20175;-71
2022/09/20 07:56:02;;;;;;;7.90;4.63;;;29.40;99.90;;;;;;4989587;28;20659;-71
2022/09/20 07:58:30;;;;;;;8.68;4.72;;;29.40;99.90;;;;;;5061697;28;20219;-71
2022/09/20 08:00:59;;;;;;;7.45;4.25;;;29.40;99.90;;;;;;5046771;28;20222;-71
2022/09/20 08:03:25;;;;;;;10.75;4.93;;;29.40;99.90;;;;;;5015225;28;20636;-71
2022/09/20 08:05:57;;;;;;;9.43;4.85;;;28.40;99.90;;;;;;5020103;28;20646;-71
2022/09/20 08:08:23;;;;;;;7.60;4.60;;;28.30;99.90;;;;;;5057503;28;20217;-71
2022/09/20 08:10:49;;;;;;;8.27;4.65;;;29.00;99.90;;;;;;5004722;28;20698;-71
2022/09/20 08:13:15;;;;;;;11.82;4.95;;;29.70;99.90;;;;;;5038997;28;20305;-71
2022/09/20 08:15:41;;;;;;;14.27;4.50;;;29.60;99.90;;;;;;5066579;28;20591;-69
2022/09/20 08:18:08;;;;;;;7.45;4.68;;;28.70;99.90;;;;;;5010702;28;20247;-71
2022/09/20 08:20:38;;;;;;;11.98;4.75;;;28.30;99.90;;;;;;5054489;28;20785;-69
2022/09/20 08:23:05;;;;;;;7.68;4.30;;;27.50;99.90;;;;;;4966908;28;20237;-70
2022/09/20 08:25:30;;;;;;;10.98;4.35;;;27.50;99.90;;;;;;4968627;28;20180;-70
2022/09/20 08:27:56;;;;;;;7.10;4.53;;;28.20;99.90;;;;;;4975594;28;20196;-69
2022/09/20 08:30:22;;;;;;;11.65;5.18;;;28.50;99.90;;;;;;4973811;28;20228;-70
2022/09/20 08:32:48;;;;;;;6.80;4.57;;;29.10;99.90;;;;;;4986129;28;20241;-69
2022/09/20 08:35:14;;;;;;;7.53;4.72;;;29.30;99.90;;;;;;5022862;28;20219;-72
2022/09/20 08:37:42;;;;;;;5.05;4.40;;;28.30;99.90;;;;;;5029025;28;20167;-71
2022/09/20 08:40:11;;;;;;;7.65;3.95;;;27.20;99.90;;;;;;5054038;28;20187;-71
2022/09/20 08:42:38;;;;;;;6.40;4.18;;;26.10;99.90;;;;;;5006145;28;20198;-71
2022/09/20 08:45:17;;;;;;;7.22;4.03;;;24.70;99.90;;;;;;5050282;28;20190;-71
2022/09/20 08:47:55;;;;;;;18.48;4.90;;;24.00;1.00;;;;;;5039136;28;20176;-70
2022/09/20 08:50:22;;;;;;;12.32;4.65;;;23.40;30.80;;;;;;5005997;28;20209;-70
2022/09/20 08:52:51;;;;;;;10.48;5.20;;;23.10;99.90;;;;;;5058077;28;20278;-69
2022/09/20 08:55:25;;;;;;;7.88;4.45;;;22.90;99.90;;;;;;5023774;28;20291;-70
2022/09/20 08:57:55;;;;;;;5.18;3.83;;;22.50;1.00;;;;;;5022953;28;20215;-69
2022/09/20 09:00:25;;;;;;;8.48;4.47;;;21.70;1.00;;;;;;4992857;28;20174;-74
2022/09/20 09:02:55;;;;;;;11.60;4.47;;;21.20;89.10;;;;;;5057759;28;20195;-71
2022/09/20 09:05:35;;;;;;;7.85;4.43;;;21.40;1.00;;;;;;5027850;28;20168;-70
2022/09/20 09:08:05;;;;;;;8.38;4.45;;;21.20;1.00;;;;;;5016226;28;20174;-69
2022/09/20 09:10:36;;;;;;;9.05;4.45;;;21.10;1.00;;;;;;5059609;28;20183;-71
2022/09/20 09:13:03;;;;;;;10.38;3.72;;;21.10;99.90;;;;;;5016287;28;20180;-70
2022/09/20 09:15:35;;;;;;;7.65;3.97;;;20.70;99.90;;;;;;5035163;28;20211;-71
2022/09/20 09:18:01;;;;;;;6.28;2.78;;;20.40;1.00;;;;;;5049679;28;20247;-71
2022/09/20 09:20:27;;;;;;;7.95;3.30;;;21.10;99.90;;;;;;5005661;28;20179;-70
2022/09/20 09:23:05;;;;;;;8.88;3.50;;;22.60;1.00;;;;;;5055066;28;20170;-71
2022/09/20 09:25:39;;;;;;;8.48;2.65;;;24.20;1.00;;;;;;5032079;28;20197;-72
2022/09/20 09:28:06;;;;;;;7.55;2.90;;;25.70;1.00;;;;;;5014449;28;20186;-72
2022/09/20 09:30:34;;;;;;;8.77;3.20;;;26.80;99.90;;;;;;5014680;28;20336;-70
2022/09/20 09:33:18;;;;;;;4.85;2.85;;;26.70;99.90;;;;;;5040188;28;20291;-76
2022/09/20 09:35:55;;;;;;;5.15;3.15;;;25.60;99.90;;;;;;4975497;28;20294;-76
2022/09/20 09:38:24;;;;;;;5.47;3.15;;;25.80;99.90;;;;;;5022068;28;20175;-75
2022/09/20 09:40:51;;;;;;;4.00;2.85;;;25.20;99.90;;;;;;4994980;28;20628;-75
2022/09/20 09:43:27;;;;;;;11.80;4.85;;;24.90;1.00;;;;;;5033355;28;20169;-74
2022/09/20 09:45:54;;;;;;;5.50;3.70;;;24.70;1.00;;;;;;5021687;28;20630;-73
2022/09/20 09:48:31;;;;;;;5.32;2.55;;;25.00;1.00;;;;;;5022282;28;20182;-74
2022/09/20 09:51:14;;;;;;;5.32;3.22;;;24.60;1.00;;;;;;4984028;28;20200;-74
2022/09/20 09:53:41;;;;;;;5.22;2.60;;;24.10;1.00;;;;;;5042506;28;20160;-71
2022/09/20 09:56:16;;;;;;;5.22;3.10;;;25.40;1.00;;;;;;5042925;28;20164;-72
2022/09/20 09:59:00;;;;;;;6.28;2.50;;;26.60;99.90;;;;;;5030611;28;20175;-73
2022/09/20 10:01:47;;;;;;;5.10;2.20;;;27.10;99.90;;;;;;5025556;28;20175;-72
2022/09/20 10:04:32;;;;;;;5.38;2.78;;;26.20;99.90;;;;;;5016102;28;20183;-72
2022/09/20 10:07:05;;;;;;;5.15;3.00;;;25.70;99.90;;;;;;5000181;28;20251;-71
2022/09/20 10:10:07;;;;;;;3.75;2.75;;;24.40;1.00;;;;;;5072823;28;20192;-70
2022/09/20 10:12:53;;;;;;;6.13;2.42;;;23.40;99.40;;;;;;5072123;28;20160;-70
2022/09/20 10:15:43;;;;;;;5.10;2.88;;;22.90;1.00;;;;;;5073192;28;20209;-70
2022/09/20 10:18:39;;;;;;;8.52;3.05;;;22.50;1.00;;;;;;5072166;28;20274;-69
2022/09/20 10:21:27;;;;;;;7.53;2.67;;;22.20;1.00;;;;;;5072726;28;20198;-69
2022/09/20 10:24:16;;;;;;;3.80;2.30;;;21.90;99.90;;;;;;5073082;28;20581;-68
2022/09/20 10:27:13;;;;;;;3.88;2.55;;;21.90;1.00;;;;;;5053880;28;20184;-70
2022/09/20 10:29:51;;;;;;;5.50;2.78;;;21.90;58.90;;;;;;5073548;28;20628;-68
2022/09/20 10:32:39;;;;;;;7.22;3.13;;;22.00;1.00;;;;;;5073769;28;20175;-68
2022/09/20 10:35:23;;;;;;;5.35;3.65;;;21.90;1.00;;;;;;5011775;28;20285;-69
2022/09/20 10:38:10;;;;;;;6.88;2.80;;;22.00;99.90;;;;;;4990095;28;20627;-70
2022/09/20 10:44:23;;;;;;;4.30;2.78;;;22.10;1.00;;;;;;5011564;28;20189;-70
2022/09/20 10:47:30;;;;;;;3.28;2.30;;;22.30;1.00;;;;;;4990051;28;20183;-68
2022/09/20 10:50:43;;;;;;;5.20;2.20;;;22.40;99.90;;;;;;5050105;28;20311;-69
2022/09/20 10:53:15;;;;;;;9.70;2.90;;;22.30;1.00;;;;;;5033490;28;20284;-70
2022/09/20 10:55:58;;;;;;;5.50;1.90;;;21.80;99.90;;;;;;5050353;28;20232;-69
2022/09/20 10:58:58;;;;;;;5.18;2.40;;;21.30;1.00;;;;;;5050930;28;20288;-69
2022/09/20 11:01:40;;;;;;;5.22;1.92;;;20.90;1.00;;;;;;5050278;28;20170;-70
2022/09/20 11:04:40;;;;;;;7.15;2.40;;;20.60;8.00;;;;;;5050152;28;20166;-71
2022/09/20 11:07:20;;;;;;;3.10;2.33;;;20.30;99.90;;;;;;5035398;28;20192;-71
2022/09/20 11:10:00;;;;;;;8.98;4.20;;;19.90;99.90;;;;;;5030097;28;20174;-71
2022/09/20 11:12:46;;;;;;;9.82;3.40;;;19.60;30.30;;;;;;5029545;28;20181;-71
2022/09/20 11:15:44;;;;;;;6.80;3.55;;;19.00;99.90;;;;;;5029811;28;20272;-68
2022/09/20 11:18:40;;;;;;;6.97;4.03;;;18.60;1.00;;;;;;5021857;28;20260;-70
2022/09/20 11:21:23;;;;;;;10.10;4.57;;;18.20;1.00;;;;;;5022566;28;20564;-68
2022/09/20 11:23:59;;;;;;;7.10;4.20;;;18.10;1.00;;;;;;5037533;28;20653;-69
2022/09/20 11:26:35;;;;;;;11.32;4.60;;;18.40;1.00;;;;;;5061518;28;20184;-69
2022/09/20 11:29:10;;;;;;;4.85;3.45;;;18.60;1.00;;;;;;5048989;28;20252;-68
2022/09/20 11:31:39;;;;;;;7.25;3.70;;;18.90;1.00;;;;;;5032615;28;20168;-70
2022/09/20 11:34:15;;;;;;;7.22;3.95;;;19.30;1.00;;;;;;5012237;28;20203;-69
2022/09/20 11:36:51;;;;;;;7.80;4.30;;;19.80;99.90;;;;;;5057583;28;20191;-68
2022/09/20 11:39:41;;;;;;;9.73;3.67;;;19.70;99.90;;;;;;5014334;28;20175;-69
2022/09/20 11:42:14;;;;;;;10.40;3.53;;;20.20;1.00;;;;;;5005217;28;20218;-68
2022/09/20 11:44:41;;;;;;;5.60;3.35;;;20.40;99.90;;;;;;5057267;28;20174;-69
2022/09/20 11:47:15;;;;;;;7.93;3.30;;;20.70;99.90;;;;;;5013452;28;20189;-69
2022/09/20 11:50:03;;;;;;;8.15;3.38;;;21.00;1.00;;;;;;5024310;28;20186;-69
2022/09/20 11:53:10;;;;;;;5.22;3.00;;;21.20;1.00;;;;;;5056823;28;20214;-70
2022/09/20 11:55:44;;;;;;;9.07;2.50;;;20.80;1.00;;;;;;5009628;28;20296;-69
2022/09/20 11:58:15;;;;;;;3.67;2.95;;;19.90;1.00;;;;;;4986434;28;20195;-68
2022/09/20 12:00:45;;;;;;;6.35;2.38;;;19.30;99.90;;;;;;5047350;28;20221;-71
2022/09/20 12:03:31;;;;;;;4.95;2.63;;;19.00;1.00;;;;;;5018686;28;20173;-68
2022/09/20 12:06:03;;;;;;;7.28;2.72;;;18.70;99.90;;;;;;5015101;28;20175;-68
2022/09/20 12:08:33;;;;;;;4.20;2.42;;;18.20;99.90;;;;;;5057183;28;20173;-69
2022/09/20 12:11:03;;;;;;;5.25;2.97;;;18.20;1.00;;;;;;5003946;28;20180;-68
2022/09/20 12:13:32;;;;;;;4.90;2.80;;;18.00;1.00;;;;;;5032428;28;20199;-70
2022/09/20 12:16:14;;;;;;;6.72;2.85;;;17.90;1.00;;;;;;5041893;28;20208;-69
2022/09/20 12:19:00;;;;;;;4.30;2.72;;;18.10;1.00;;;;;;4974975;28;20217;-67
2022/09/20 12:21:27;;;;;;;7.72;2.97;;;18.60;1.00;;;;;;4979330;28;20244;-68
2022/09/20 12:23:55;;;;;;;6.82;3.22;;;19.10;99.90;;;;;;4982295;28;20176;-68
2022/09/20 12:26:21;;;;;;;8.43;3.00;;;19.80;69.00;;;;;;5056667;28;20179;-66
2022/09/20 12:28:55;;;;;;;6.25;2.50;;;20.10;1.00;;;;;;5003995;28;20168;-69
2022/09/20 12:31:20;;;;;;;3.65;2.30;;;20.00;99.90;;;;;;5036788;28;20218;-68
2022/09/20 12:33:58;;;;;;;3.72;2.10;;;19.90;99.90;;;;;;4988296;28;20211;-68
2022/09/20 12:36:26;;;;;;;4.55;2.30;;;20.00;99.90;;;;;;5056928;28;20187;-67
2022/09/20 12:39:09;;;;;;;5.35;2.35;;;19.90;1.00;;;;;;5006132;28;20161;-69
2022/09/20 12:42:05;;;;;;;6.63;2.67;;;19.50;1.00;;;;;;5070780;28;20176;-67
2022/09/20 12:44:49;;;;;;;2.72;2.15;;;19.50;99.90;;;;;;5061249;28;20173;-68
2022/09/20 12:47:30;;;;;;;5.20;2.47;;;19.80;1.00;;;;;;5040202;28;20182;-68
2022/09/20 12:53:02;;;;;;;5.93;2.35;;;20.00;1.00;;;;;;4981186;28;20214;-67
2022/09/20 12:55:53;;;;;;;5.65;2.00;;;20.10;1.00;;;;;;4979463;28;20284;-68
2022/09/20 12:58:46;;;;;;;5.68;3.00;;;20.60;99.90;;;;;;4980981;28;20302;-68
2022/09/20 13:01:12;;;;;;;8.77;2.90;;;20.70;99.90;;;;;;4976460;28;20175;-69
2022/09/20 13:03:39;;;;;;;5.65;3.15;;;20.70;99.90;;;;;;4988882;28;20171;-68
2022/09/20 13:06:05;;;;;;;8.20;5.35;;;20.60;99.90;;;;;;5048347;28;20173;-67
2022/09/20 13:09:00;;;;;;;3.88;2.50;;;20.40;1.00;;;;;;4993206;28;20188;-68
2022/09/20 13:11:53;;;;;;;4.03;1.40;;;20.50;1.00;;;;;;5029482;28;20179;-69
2022/09/20 13:14:30;;;;;;;4.07;1.60;;;20.50;99.90;;;;;;5034002;28;20256;-67
2022/09/20 13:17:11;;;;;;;2.50;1.52;;;20.30;99.90;;;;;;4962614;28;20654;-68
2022/09/20 13:19:43;;;;;;;5.28;2.10;;;20.10;1.00;;;;;;5034220;28;20298;-69
2022/09/20 13:22:21;;;;;;;1.83;1.63;;;20.00;1.00;;;;;;5011632;28;20191;-69
2022/09/20 13:24:49;;;;;;;2.78;1.77;;;20.00;1.00;;;;;;4956541;28;20167;-66
2022/09/20 13:27:19;;;;;;;6.53;2.28;;;20.10;1.00;;;;;;4988152;28;20192;-67
2022/09/20 13:29:44;;;;;;;5.55;1.80;;;20.00;94.10;;;;;;4982104;28;20337;-67
2022/09/20 13:32:26;;;;;;;5.05;1.75;;;20.10;99.90;;;;;;5054164;28;20255;-68
2022/09/20 13:35:14;;;;;;;3.10;1.55;;;20.10;99.90;;;;;;4961979;28;20728;-69
2022/09/20 13:38:05;;;;;;;5.40;1.85;;;20.30;99.90;;;;;;5037141;28;20172;-68
2022/09/20 13:40:48;;;;;;;4.22;2.17;;;20.40;1.00;;;;;;5005188;28;20221;-69
2022/09/20 13:43:44;;;;;;;4.68;1.98;;;20.40;1.00;;;;;;5042590;28;20203;-70
2022/09/20 13:46:12;;;;;;;5.43;1.83;;;20.50;1.00;;;;;;5016612;28;20188;-70
2022/09/20 13:48:39;;;;;;;8.90;4.25;;;20.60;1.00;;;;;;4979567;28;20270;-71
2022/09/20 13:51:26;;;;;;;6.78;2.40;;;20.70;99.90;;;;;;5025310;28;20184;-70
2022/09/20 13:53:52;;;;;;;8.35;1.90;;;20.80;99.90;;;;;;5020466;28;20303;-69
2022/09/20 13:56:28;;;;;;;8.73;2.63;;;20.60;1.00;;;;;;4968308;28;20255;-69
2022/09/20 13:58:57;;;;;;;6.38;1.67;;;20.70;99.90;;;;;;4944058;28;20231;-69